createdAt,value
2023-05-22T00:06:48.394Z,3.20
2023-05-22T00:21:48.763Z,3.30
2023-05-22T00:36:48.903Z,3.40
2023-05-22T00:51:49.084Z,2.80
2023-05-22T01:06:49.290Z,3.10
2023-05-22T01:21:49.343Z,3.00
2023-05-22T01:36:49.818Z,3.90
2023-05-22T01:51:49.772Z,4.30
2023-05-22T02:06:49.920Z,5.10
2023-05-22T02:21:50.071Z,4.60
2023-05-22T02:36:50.312Z,4.60
2023-05-22T02:51:50.539Z,5.30
2023-05-22T03:06:50.712Z,9.50
2023-05-22T03:21:51.008Z,44.90
2023-05-22T03:36:51.187Z,461.30
2023-05-22T03:51:51.544Z,334.30
2023-05-22T04:06:51.577Z,356.80
2023-05-22T04:21:51.738Z,532.60
2023-05-22T04:36:51.862Z,110.50
2023-05-22T04:51:52.108Z,102.60
2023-05-22T05:06:52.024Z,107.90
2023-05-22T05:21:52.558Z,105.80
2023-05-22T05:36:52.884Z,130.20
2023-05-22T05:51:54.113Z,159.50
2023-05-22T06:06:55.574Z,198.00
2023-05-22T06:21:55.983Z,249.20
2023-05-22T06:36:56.226Z,253.30
2023-05-22T06:51:56.397Z,105.80
2023-05-22T07:06:56.506Z,32.50
2023-05-22T07:21:56.848Z,5.80
2023-05-22T07:36:57.114Z,7.10
2023-05-22T07:51:58.433Z,4.30
2023-05-22T08:06:58.564Z,4.10
2023-05-22T08:21:59.864Z,4.00
2023-05-22T08:36:59.628Z,3.50
2023-05-22T08:51:59.824Z,3.90
2023-05-22T09:07:00.110Z,3.60
2023-05-22T09:22:01.889Z,3.10
2023-05-22T09:37:02.747Z,2.90
2023-05-22T09:52:03.916Z,3.00
2023-05-22T10:07:04.288Z,3.40
2023-05-22T10:22:04.969Z,2.40
2023-05-22T10:37:16.470Z,2.60
2023-05-22T10:52:12.193Z,3.10
2023-05-22T11:07:12.316Z,2.70
2023-05-22T11:22:12.628Z,2.90
2023-05-22T11:37:13.061Z,2.60
2023-05-22T11:52:14.678Z,2.40
2023-05-22T12:07:14.762Z,2.50
2023-05-22T12:22:15.202Z,2.20
2023-05-22T12:37:15.850Z,2.90
2023-05-22T12:52:16.355Z,2.40
2023-05-22T13:07:16.375Z,2.30
2023-05-22T13:22:16.967Z,2.30
2023-05-22T13:37:18.289Z,2.90
2023-05-22T13:52:19.770Z,2.50
2023-05-22T14:07:20.033Z,2.50
2023-05-22T14:22:20.366Z,2.70
2023-05-22T14:37:20.535Z,2.40
2023-05-22T14:52:20.808Z,2.60
2023-05-22T15:07:24.334Z,2.50
2023-05-22T15:22:26.307Z,2.60
2023-05-22T15:37:26.496Z,2.50
2023-05-22T15:52:27.043Z,4.60
2023-05-22T16:07:28.305Z,2.90
2023-05-22T16:22:44.162Z,2.80
2023-05-22T16:37:43.764Z,7.40
2023-05-22T16:52:48.456Z,154.70
2023-05-22T17:07:48.178Z,100.10
2023-05-22T17:22:48.733Z,121.40
2023-05-22T17:37:48.900Z,101.70
2023-05-22T17:52:50.377Z,103.00
2023-05-22T18:07:51.701Z,38.20
2023-05-22T18:22:51.926Z,22.00
2023-05-22T18:37:52.429Z,10.30
2023-05-22T18:52:53.177Z,8.40
2023-05-22T19:07:53.707Z,2.70
2023-05-22T19:22:54.894Z,2.90
2023-05-22T19:37:55.525Z,3.30
2023-05-22T19:52:57.207Z,3.60
2023-05-22T20:07:58.183Z,3.50
2023-05-22T20:22:58.476Z,3.50
2023-05-22T20:37:58.551Z,3.30
2023-05-22T20:53:00.001Z,3.70
2023-05-22T21:08:01.245Z,3.60
2023-05-22T21:23:02.620Z,3.40
2023-05-22T21:38:03.488Z,3.40
2023-05-22T21:53:04.784Z,3.10
2023-05-22T22:08:04.861Z,3.00
2023-05-22T22:23:04.907Z,3.50
2023-05-22T22:38:05.214Z,3.90
2023-05-22T22:53:05.964Z,3.10
2023-05-22T23:08:07.033Z,4.10
2023-05-22T23:23:07.061Z,4.10
2023-05-22T23:38:07.128Z,3.50
2023-05-22T23:53:07.487Z,4.10
